createdAt,value
2022-12-13T00:02:13.782Z,30.16
2022-12-13T00:04:42.813Z,29.62
2022-12-13T00:07:09.796Z,29.03
2022-12-13T00:09:36.950Z,28.75
2022-12-13T00:12:09.667Z,29.32
2022-12-13T00:14:36.935Z,28.55
2022-12-13T00:17:03.731Z,28.52
2022-12-13T00:19:33.308Z,28.26
2022-12-13T00:22:00.305Z,28.23
2022-12-13T00:24:29.994Z,27.71
2022-12-13T00:26:57.564Z,27.23
2022-12-13T00:29:24.712Z,27.85
2022-12-13T00:32:00.420Z,27.47
2022-12-13T00:34:28.133Z,27.72
2022-12-13T00:36:57.910Z,26.78
2022-12-13T00:39:25.076Z,27.18
2022-12-13T00:41:51.838Z,27.61
2022-12-13T00:44:18.915Z,27.60
2022-12-13T00:46:46.163Z,27.34
2022-12-13T00:49:15.708Z,27.67
2022-12-13T00:51:42.513Z,27.18
2022-12-13T00:54:10.067Z,27.21
2022-12-13T00:56:37.627Z,27.26
2022-12-13T00:59:05.263Z,27.02
2022-12-13T01:01:34.024Z,27.49
2022-12-13T01:04:01.521Z,27.40
2022-12-13T01:06:33.491Z,26.83
2022-12-13T01:09:01.072Z,27.32
2022-12-13T01:11:28.156Z,27.78
2022-12-13T01:13:55.241Z,27.83
2022-12-13T01:16:22.320Z,28.58
2022-12-13T01:18:49.464Z,29.46
2022-12-13T01:21:17.809Z,28.11
2022-12-13T01:23:45.011Z,28.31
2022-12-13T01:26:14.142Z,28.74
2022-12-13T01:28:41.046Z,28.21
2022-12-13T01:31:10.149Z,28.09
2022-12-13T01:33:43.153Z,27.40
2022-12-13T01:36:16.006Z,27.54
2022-12-13T01:38:42.983Z,26.65
2022-12-13T01:41:18.256Z,27.11
2022-12-13T01:43:53.412Z,26.07
2022-12-13T01:46:20.564Z,26.31
2022-12-13T01:48:56.053Z,26.16
2022-12-13T01:51:26.564Z,26.16
2022-12-13T01:53:59.833Z,26.28
2022-12-13T01:56:32.768Z,26.05
2022-12-13T01:59:06.544Z,26.94
2022-12-13T02:01:34.905Z,27.33
2022-12-13T02:04:02.397Z,27.71
2022-12-13T02:06:40.625Z,28.27
2022-12-13T02:09:07.549Z,27.61
2022-12-13T02:11:38.993Z,27.54
2022-12-13T02:14:06.841Z,28.10
2022-12-13T02:16:55.281Z,28.10
2022-12-13T02:19:51.407Z,27.68
2022-12-13T02:22:40.414Z,28.35
2022-12-13T02:25:33.874Z,28.65
2022-12-13T02:28:30.193Z,28.98
2022-12-13T02:31:40.104Z,28.79
2022-12-13T02:34:13.257Z,27.86
2022-12-13T02:37:01.648Z,27.25
2022-12-13T02:39:34.093Z,27.38
2022-12-13T02:42:07.644Z,26.94
2022-12-13T02:45:06.553Z,27.27
2022-12-13T02:47:37.640Z,26.61
2022-12-13T02:50:06.421Z,27.15
2022-12-13T02:52:36.488Z,26.48
2022-12-13T02:55:07.340Z,25.78
2022-12-13T02:57:38.244Z,26.16
2022-12-13T03:00:15.062Z,25.91
2022-12-13T03:03:08.324Z,26.26
2022-12-13T03:06:16.269Z,26.68
2022-12-13T03:08:48.647Z,26.23
2022-12-13T03:11:18.892Z,25.82
2022-12-13T03:14:02.482Z,25.89
2022-12-13T03:16:40.662Z,25.86
2022-12-13T03:19:09.028Z,25.84
2022-12-13T03:21:48.250Z,26.60
2022-12-13T03:24:20.777Z,26.61
2022-12-13T03:26:48.701Z,26.42
2022-12-13T03:29:24.358Z,26.34
2022-12-13T03:31:52.761Z,26.12
2022-12-13T03:34:23.047Z,24.60
2022-12-13T03:36:52.592Z,24.75
2022-12-13T03:39:19.674Z,23.69
2022-12-13T03:41:49.677Z,24.20
2022-12-13T03:44:16.577Z,24.45
2022-12-13T03:46:47.195Z,24.70
2022-12-13T03:49:17.673Z,24.52
2022-12-13T03:51:45.017Z,25.89
2022-12-13T03:54:12.029Z,26.44
2022-12-13T03:56:39.151Z,27.05
2022-12-13T03:59:07.634Z,26.75
2022-12-13T04:01:34.751Z,26.31
2022-12-13T04:04:01.499Z,26.18
2022-12-13T04:06:32.817Z,26.52
2022-12-13T04:09:01.124Z,26.35
2022-12-13T04:11:31.022Z,27.57
2022-12-13T04:14:22.429Z,28.52
2022-12-13T04:17:00.972Z,27.96
2022-12-13T04:19:28.824Z,28.10
2022-12-13T04:21:55.729Z,28.07
2022-12-13T04:24:31.240Z,28.23
2022-12-13T04:27:13.113Z,27.75
2022-12-13T04:29:42.798Z,28.60
2022-12-13T04:32:26.812Z,28.32
2022-12-13T04:35:12.220Z,28.48
2022-12-13T04:37:39.733Z,27.28
2022-12-13T04:40:12.079Z,27.08
2022-12-13T04:43:03.775Z,26.46
2022-12-13T04:45:33.543Z,26.46
2022-12-13T04:48:00.736Z,27.16
2022-12-13T04:50:27.511Z,27.56
2022-12-13T04:52:55.261Z,27.82
2022-12-13T04:55:24.935Z,29.59
2022-12-13T04:58:03.970Z,30.49
2022-12-13T05:00:30.726Z,29.83
2022-12-13T05:02:57.541Z,29.65
2022-12-13T05:05:24.627Z,30.39
2022-12-13T05:07:51.825Z,29.96
2022-12-13T05:10:34.082Z,28.86
2022-12-13T05:13:05.002Z,28.91
2022-12-13T05:15:34.183Z,29.40
2022-12-13T05:18:09.901Z,29.64
2022-12-13T05:20:39.125Z,30.11
2022-12-13T05:23:06.765Z,30.54
2022-12-13T05:25:33.853Z,30.77
2022-12-13T05:28:00.967Z,30.39
2022-12-13T05:30:42.178Z,30.38
2022-12-13T05:33:12.060Z,30.07
2022-12-13T05:35:39.041Z,29.61
2022-12-13T05:38:06.187Z,29.38
2022-12-13T05:40:32.932Z,30.01
2022-12-13T05:43:02.433Z,30.29
2022-12-13T05:45:30.180Z,30.84
2022-12-13T05:47:59.872Z,30.84
2022-12-13T05:50:27.518Z,31.16
2022-12-13T05:52:57.245Z,31.36
2022-12-13T05:55:30.177Z,31.02
2022-12-13T05:58:02.319Z,30.55
2022-12-13T06:00:30.982Z,29.93
2022-12-13T06:03:01.289Z,29.76
2022-12-13T06:05:29.651Z,29.18
2022-12-13T06:07:58.282Z,29.53
2022-12-13T06:10:34.469Z,29.85
2022-12-13T06:13:21.756Z,29.52
2022-12-13T06:16:01.398Z,30.34
2022-12-13T06:18:35.161Z,30.01
2022-12-13T06:21:06.224Z,28.99
2022-12-13T06:23:34.074Z,28.36
2022-12-13T06:26:09.921Z,29.01
2022-12-13T06:28:47.950Z,28.10
2022-12-13T06:31:18.649Z,27.23
2022-12-13T06:33:46.735Z,27.01
2022-12-13T06:39:04.180Z,25.19
2022-12-13T06:41:55.648Z,26.10
2022-12-13T06:44:23.796Z,25.02
2022-12-13T06:46:50.888Z,25.31
2022-12-13T06:49:18.032Z,25.76
2022-12-13T06:51:45.162Z,25.40
2022-12-13T06:54:14.941Z,25.82
2022-12-13T06:56:41.654Z,26.24
2022-12-13T06:59:09.348Z,26.91
2022-12-13T07:01:36.946Z,27.23
2022-12-13T07:04:05.668Z,28.67
2022-12-13T07:07:07.647Z,29.55
2022-12-13T07:09:34.637Z,29.11
2022-12-13T07:12:01.841Z,29.77
2022-12-13T07:14:31.967Z,29.14
2022-12-13T07:17:07.935Z,28.59
2022-12-13T07:19:35.995Z,28.02
2022-12-13T07:22:04.508Z,27.85
2022-12-13T07:24:31.774Z,27.97
2022-12-13T07:27:03.808Z,27.79
2022-12-13T07:29:30.676Z,27.60
2022-12-13T07:32:01.462Z,26.94
2022-12-13T07:34:29.526Z,26.73
2022-12-13T07:36:56.463Z,26.49
2022-12-13T07:39:26.215Z,25.95
2022-12-13T07:41:56.269Z,25.00
2022-12-13T07:44:29.715Z,25.00
2022-12-13T07:46:56.588Z,24.08
2022-12-13T07:49:23.657Z,23.92
2022-12-13T07:51:50.359Z,24.13
2022-12-13T07:54:17.466Z,23.97
2022-12-13T07:56:46.045Z,24.31
2022-12-13T07:59:13.229Z,24.94
2022-12-13T08:01:40.385Z,25.15
2022-12-13T08:04:08.589Z,25.73
2022-12-13T08:06:36.182Z,24.94
2022-12-13T08:09:03.430Z,24.89
2022-12-13T08:11:31.021Z,25.69
2022-12-13T08:13:57.796Z,25.34
2022-12-13T08:16:28.412Z,26.34
2022-12-13T08:19:03.190Z,26.59
2022-12-13T08:21:58.455Z,27.30
2022-12-13T08:24:29.283Z,26.47
2022-12-13T08:26:59.998Z,26.07
2022-12-13T08:29:34.648Z,26.38
2022-12-13T08:32:10.350Z,25.80
2022-12-13T08:34:37.310Z,24.81
2022-12-13T08:37:05.268Z,25.67
2022-12-13T08:39:34.697Z,25.11
2022-12-13T08:42:15.031Z,23.86
2022-12-13T08:44:56.501Z,23.92
2022-12-13T08:47:26.337Z,23.34
2022-12-13T08:50:02.699Z,22.38
2022-12-13T08:52:40.284Z,21.12
2022-12-13T08:55:13.102Z,20.76
2022-12-13T08:57:40.567Z,20.57
2022-12-13T09:00:09.629Z,21.05
2022-12-13T09:05:08.786Z,20.66
2022-12-13T09:07:36.868Z,20.66
2022-12-13T09:10:26.426Z,19.99
2022-12-13T09:13:01.452Z,20.11
2022-12-13T09:15:29.704Z,19.87
2022-12-13T09:18:04.289Z,19.90
2022-12-13T09:20:32.334Z,19.40
2022-12-13T09:23:13.624Z,20.36
2022-12-13T09:26:04.825Z,20.55
2022-12-13T09:28:33.708Z,20.63
2022-12-13T09:31:00.524Z,20.92
2022-12-13T09:33:29.996Z,21.39
2022-12-13T09:35:57.733Z,20.72
2022-12-13T09:38:24.598Z,22.06
2022-12-13T09:40:58.870Z,22.49
2022-12-13T09:43:33.484Z,23.93
2022-12-13T09:46:22.984Z,23.60
2022-12-13T09:48:53.018Z,23.18
2022-12-13T09:51:39.600Z,22.97
2022-12-13T09:54:16.961Z,23.18
2022-12-13T09:56:47.979Z,23.83
2022-12-13T09:59:14.880Z,23.96
2022-12-13T10:01:41.838Z,23.32
2022-12-13T10:04:11.321Z,23.98
2022-12-13T10:06:38.440Z,23.56
2022-12-13T10:09:06.879Z,23.72
2022-12-13T10:11:50.346Z,25.26
2022-12-13T10:14:39.526Z,24.77
2022-12-13T10:17:07.693Z,24.87
2022-12-13T10:19:36.661Z,24.46
2022-12-13T10:22:04.092Z,23.82
2022-12-13T10:24:51.094Z,22.94
2022-12-13T10:27:43.181Z,22.57
2022-12-13T10:30:24.534Z,22.39
2022-12-13T10:33:05.243Z,21.69
2022-12-13T10:35:36.841Z,21.49
2022-12-13T10:38:22.657Z,21.31
2022-12-13T10:40:58.874Z,21.63
2022-12-13T10:43:28.422Z,20.80
2022-12-13T10:46:00.770Z,20.08
2022-12-13T10:48:58.349Z,19.98
2022-12-13T10:51:37.756Z,19.69
2022-12-13T10:54:06.335Z,19.76
2022-12-13T10:56:36.910Z,19.97
2022-12-13T10:59:29.404Z,19.40
2022-12-13T11:01:56.478Z,19.35
2022-12-13T11:04:33.895Z,19.66
2022-12-13T11:07:20.627Z,19.19
2022-12-13T11:09:52.752Z,20.27
2022-12-13T11:12:25.883Z,20.43
2022-12-13T11:14:57.972Z,20.73
2022-12-13T11:17:26.293Z,20.62
2022-12-13T11:19:57.957Z,20.76
2022-12-13T11:22:36.307Z,20.74
2022-12-13T11:25:09.990Z,20.17
2022-12-13T11:27:58.370Z,20.18
2022-12-13T11:30:54.094Z,20.09
2022-12-13T11:33:48.467Z,20.49
2022-12-13T11:36:35.876Z,20.08
2022-12-13T11:39:19.962Z,19.87
2022-12-13T11:42:16.409Z,19.38
2022-12-13T11:45:06.186Z,18.15
2022-12-13T11:48:05.620Z,17.40
2022-12-13T11:50:44.956Z,17.81
2022-12-13T11:53:28.692Z,18.53
2022-12-13T11:56:19.771Z,18.11
2022-12-13T11:59:28.167Z,17.49
2022-12-13T12:02:28.698Z,16.93
2022-12-13T12:05:00.886Z,17.94
2022-12-13T12:07:44.588Z,18.10
2022-12-13T12:10:33.928Z,18.07
2022-12-13T12:13:15.706Z,20.18
2022-12-13T12:16:05.624Z,22.48
2022-12-13T12:18:35.322Z,21.01
2022-12-13T12:21:16.985Z,20.17
2022-12-13T12:23:56.268Z,19.05
2022-12-13T12:26:55.272Z,18.90
2022-12-13T12:29:53.814Z,17.59
2022-12-13T12:32:54.331Z,16.73
2022-12-13T12:36:07.031Z,16.20
2022-12-13T12:38:43.422Z,16.65
2022-12-13T12:41:47.697Z,16.50
2022-12-13T12:44:40.777Z,15.84
2022-12-13T12:50:52.745Z,16.36
2022-12-13T12:53:27.569Z,14.82
2022-12-13T12:56:28.429Z,13.00
2022-12-13T12:59:09.596Z,13.36
2022-12-13T13:02:15.901Z,12.38
2022-12-13T13:04:45.971Z,13.10
2022-12-13T13:07:27.294Z,13.63
2022-12-13T13:09:55.010Z,13.69
2022-12-13T13:12:29.273Z,13.66
2022-12-13T13:14:57.340Z,13.08
2022-12-13T13:17:33.070Z,11.72
2022-12-13T13:20:24.243Z,12.16
2022-12-13T13:23:17.637Z,12.17
2022-12-13T13:26:15.956Z,12.39
2022-12-13T13:28:32.419Z,11.83
2022-12-13T13:31:10.537Z,11.92
2022-12-13T13:33:51.005Z,11.32
2022-12-13T13:36:42.754Z,12.42
2022-12-13T13:39:16.614Z,13.69
2022-12-13T13:42:16.339Z,12.56
2022-12-13T13:44:52.076Z,12.56
2022-12-13T13:47:42.055Z,13.45
2022-12-13T13:50:09.032Z,12.64
2022-12-13T13:52:44.643Z,12.20
2022-12-13T13:55:20.332Z,12.15
2022-12-13T13:58:24.408Z,11.74
2022-12-13T14:01:05.911Z,12.10
2022-12-13T14:04:06.328Z,11.71
2022-12-13T14:06:53.079Z,11.94
2022-12-13T14:09:48.887Z,11.74
2022-12-13T14:12:34.245Z,10.62
2022-12-13T14:15:38.185Z,10.03
2022-12-13T14:18:05.883Z,10.31
2022-12-13T14:21:10.235Z,10.74
2022-12-13T14:23:59.281Z,10.79
2022-12-13T14:26:52.941Z,9.41
2022-12-13T14:29:32.693Z,7.30
2022-12-13T14:32:00.778Z,7.44
2022-12-13T14:34:29.202Z,7.20
2022-12-13T14:37:28.013Z,7.74
2022-12-13T14:40:24.425Z,7.94
2022-12-13T14:42:54.518Z,8.21
2022-12-13T14:45:24.727Z,8.54
2022-12-13T14:47:54.722Z,11.30
2022-12-13T14:50:22.325Z,9.64
2022-12-13T14:52:53.696Z,10.12
2022-12-13T14:55:26.724Z,11.72
2022-12-13T14:57:54.994Z,13.97
2022-12-13T15:00:51.016Z,16.44
2022-12-13T15:03:22.597Z,17.92
2022-12-13T15:05:55.198Z,16.08
2022-12-13T15:08:24.564Z,14.99
2022-12-13T15:10:53.893Z,16.15
2022-12-13T15:13:45.779Z,17.36
2022-12-13T15:19:30.083Z,16.31
2022-12-13T15:22:05.551Z,15.67
2022-12-13T15:24:38.619Z,15.80
2022-12-13T15:27:13.465Z,15.84
2022-12-13T15:29:40.223Z,15.35
2022-12-13T15:32:11.857Z,15.49
2022-12-13T15:34:43.587Z,15.29
2022-12-13T15:37:29.235Z,16.09
2022-12-13T15:39:59.621Z,14.95
2022-12-13T15:42:37.022Z,15.94
2022-12-13T15:45:30.438Z,14.52
2022-12-13T15:48:02.292Z,15.47
2022-12-13T15:50:49.212Z,15.91
2022-12-13T15:53:25.792Z,16.31
2022-12-13T15:55:54.440Z,17.36
2022-12-13T15:58:34.713Z,17.14
2022-12-13T16:01:01.573Z,17.19
2022-12-13T16:03:28.753Z,17.70
2022-12-13T16:05:56.493Z,18.05
2022-12-13T16:08:29.628Z,18.49
2022-12-13T16:10:56.530Z,19.20
2022-12-13T16:13:31.315Z,20.01
2022-12-13T16:15:59.592Z,22.19
2022-12-13T16:18:41.322Z,22.23
2022-12-13T16:21:09.300Z,21.73
2022-12-13T16:23:36.215Z,22.72
2022-12-13T16:26:12.877Z,20.85
2022-12-13T16:28:44.837Z,22.63
2022-12-13T16:31:16.652Z,22.31
2022-12-13T16:33:43.547Z,23.40
2022-12-13T16:36:11.124Z,24.20
2022-12-13T16:38:38.199Z,23.95
2022-12-13T16:41:09.466Z,24.57
2022-12-13T16:43:59.080Z,23.74
2022-12-13T16:47:18.314Z,23.91
2022-12-13T16:49:26.528Z,24.71
2022-12-13T16:51:54.071Z,25.41
2022-12-13T16:54:21.685Z,25.28
2022-12-13T16:56:49.792Z,25.56
2022-12-13T16:59:20.249Z,25.82
2022-12-13T17:01:47.445Z,25.93
2022-12-13T17:04:19.992Z,25.87
2022-12-13T17:07:03.698Z,26.36
2022-12-13T17:09:33.281Z,26.83
2022-12-13T17:12:00.600Z,27.43
2022-12-13T17:14:27.360Z,27.66
2022-12-13T17:16:54.655Z,28.16
2022-12-13T17:19:22.176Z,29.19
2022-12-13T17:21:48.975Z,30.62
2022-12-13T17:24:16.968Z,30.69
2022-12-13T17:27:08.016Z,30.99
2022-12-13T17:29:34.978Z,31.29
2022-12-13T17:32:01.827Z,32.04
2022-12-13T17:34:35.036Z,31.18
2022-12-13T17:37:09.978Z,31.15
2022-12-13T17:39:40.229Z,31.02
2022-12-13T17:42:07.721Z,30.43
2022-12-13T17:44:34.960Z,30.32
2022-12-13T17:47:03.171Z,31.91
2022-12-13T17:49:30.261Z,31.66
2022-12-13T17:52:05.693Z,32.00
2022-12-13T17:54:32.825Z,33.06
2022-12-13T17:56:59.721Z,33.62
2022-12-13T17:59:27.678Z,32.62
2022-12-13T18:01:54.586Z,32.58
2022-12-13T18:04:21.755Z,33.08
2022-12-13T18:06:50.239Z,32.40
2022-12-13T18:09:17.010Z,32.90
2022-12-13T18:11:44.910Z,35.95
2022-12-13T18:14:14.520Z,46.23
2022-12-13T18:16:41.564Z,35.53
2022-12-13T18:19:11.219Z,36.87
2022-12-13T18:22:17.919Z,33.82
2022-12-13T18:25:02.976Z,32.32
2022-12-13T18:27:29.896Z,31.92
2022-12-13T18:29:57.520Z,31.16
2022-12-13T18:32:24.356Z,31.03
2022-12-13T18:34:54.685Z,33.87
2022-12-13T18:37:24.795Z,34.26
2022-12-13T18:39:57.473Z,36.05
2022-12-13T18:42:27.267Z,35.61
2022-12-13T18:45:00.181Z,35.72
2022-12-13T18:47:29.021Z,36.33
2022-12-13T18:49:57.022Z,38.51
2022-12-13T18:52:26.757Z,37.28
2022-12-13T18:54:54.226Z,37.75
2022-12-13T18:57:27.798Z,36.33
2022-12-13T18:59:55.848Z,39.91
2022-12-13T19:02:22.967Z,37.79
2022-12-13T19:07:31.256Z,36.33
2022-12-13T19:09:58.324Z,36.64
2022-12-13T19:12:25.414Z,36.92
2022-12-13T19:14:54.822Z,36.72
2022-12-13T19:17:25.042Z,36.79
2022-12-13T19:19:52.947Z,36.27
2022-12-13T19:22:21.844Z,36.27
2022-12-13T19:24:48.878Z,36.47
2022-12-13T19:27:16.147Z,36.07
2022-12-13T19:29:48.724Z,35.88
2022-12-13T19:32:16.148Z,34.87
2022-12-13T19:34:43.368Z,36.01
2022-12-13T19:37:13.363Z,35.03
2022-12-13T19:42:28.959Z,34.60
2022-12-13T19:44:55.802Z,33.65
2022-12-13T19:47:25.533Z,34.48
2022-12-13T19:49:52.436Z,33.99
2022-12-13T19:52:21.638Z,33.94
2022-12-13T19:54:49.136Z,34.24
2022-12-13T19:57:18.374Z,35.80
2022-12-13T19:59:46.924Z,38.16
2022-12-13T20:02:19.577Z,35.64
2022-12-13T20:04:48.824Z,40.60
2022-12-13T20:07:21.817Z,36.84
2022-12-13T20:09:54.646Z,33.37
2022-12-13T20:12:40.748Z,33.42
2022-12-13T20:21:02.447Z,31.49
2022-12-13T20:23:29.280Z,31.02
2022-12-13T20:26:14.429Z,30.74
2022-12-13T20:28:41.408Z,29.67
2022-12-13T20:31:13.814Z,29.21
2022-12-13T20:33:41.028Z,28.69
2022-12-13T20:36:26.150Z,26.30
2022-12-13T20:38:57.535Z,25.67
2022-12-13T20:41:25.225Z,26.46
2022-12-13T20:43:56.545Z,27.22
2022-12-13T20:46:24.059Z,27.35
2022-12-13T20:48:51.265Z,24.41
2022-12-13T20:51:21.628Z,22.87
2022-12-13T20:53:48.831Z,23.14
2022-12-13T20:56:17.141Z,23.30
2022-12-13T20:58:45.213Z,22.33
2022-12-13T21:01:25.287Z,22.08
2022-12-13T21:03:56.792Z,22.61
2022-12-13T21:06:25.165Z,22.90
2022-12-13T21:08:52.056Z,23.68
2022-12-13T21:11:23.849Z,24.65
2022-12-13T21:14:09.215Z,22.60
2022-12-13T21:16:45.799Z,21.77
2022-12-13T21:19:23.400Z,22.59
2022-12-13T21:21:50.372Z,23.86
2022-12-13T21:24:18.004Z,23.77
2022-12-13T21:26:44.833Z,23.34
2022-12-13T21:29:11.919Z,22.51
2022-12-13T21:31:44.636Z,22.82
2022-12-13T21:34:15.965Z,22.97
2022-12-13T21:36:49.717Z,23.56
2022-12-13T21:39:21.317Z,23.88
2022-12-13T21:41:48.668Z,24.99
2022-12-13T21:44:16.504Z,23.90
2022-12-13T21:49:36.300Z,21.27
2022-12-13T21:52:06.204Z,20.84
2022-12-13T21:54:33.232Z,20.66
2022-12-13T21:57:06.332Z,19.27
2022-12-13T21:59:39.153Z,19.32
2022-12-13T22:02:11.095Z,19.54
2022-12-13T22:04:49.957Z,18.40
2022-12-13T22:07:19.253Z,18.99
2022-12-13T22:09:48.896Z,19.79
2022-12-13T22:12:27.563Z,19.24
2022-12-13T22:14:57.120Z,20.51
2022-12-13T22:17:35.255Z,20.99
2022-12-13T22:20:08.620Z,20.22
2022-12-13T22:22:42.131Z,20.77
2022-12-13T22:25:15.093Z,20.76
2022-12-13T22:28:00.424Z,21.08
2022-12-13T22:30:32.976Z,21.28
2022-12-13T22:33:02.698Z,21.40
2022-12-13T22:35:29.726Z,22.08
2022-12-13T22:38:01.652Z,22.41
2022-12-13T22:40:30.836Z,22.56
2022-12-13T22:42:57.981Z,23.89
2022-12-13T22:45:24.983Z,23.48
2022-12-13T22:47:54.621Z,23.83
2022-12-13T22:50:22.228Z,24.74
2022-12-13T22:52:49.388Z,24.32
2022-12-13T22:55:16.076Z,24.28
2022-12-13T22:57:48.557Z,23.82
2022-12-13T23:00:20.748Z,23.56
2022-12-13T23:02:53.852Z,24.05
2022-12-13T23:05:21.073Z,24.46
2022-12-13T23:07:48.707Z,24.44
2022-12-13T23:10:15.557Z,24.40
2022-12-13T23:12:42.421Z,25.14
2022-12-13T23:15:09.868Z,24.92
2022-12-13T23:17:38.548Z,24.60
2022-12-13T23:20:07.220Z,24.29
2022-12-13T23:22:34.012Z,25.43
2022-12-13T23:25:01.837Z,25.27
2022-12-13T23:27:28.865Z,25.86
2022-12-13T23:29:56.314Z,26.55
2022-12-13T23:32:23.263Z,26.24
2022-12-13T23:34:50.241Z,25.70
2022-12-13T23:37:22.416Z,25.51
2022-12-13T23:39:49.417Z,25.15
2022-12-13T23:42:23.674Z,25.46
2022-12-13T23:44:51.068Z,25.70
2022-12-13T23:47:18.165Z,25.53
2022-12-13T23:49:45.122Z,25.83
2022-12-13T23:52:15.505Z,26.46
2022-12-13T23:54:42.540Z,26.72
2022-12-13T23:57:09.608Z,27.45
2022-12-13T23:59:36.563Z,27.97
